Time;durP1;ratioP1;P1;durP2;ratioP2;P2;SDS_P1;SDS_P2;PMS_P1;PMS_P2;Temp;Humidity;BMP_temperature;BMP_pressure;BME280_temperature;BME280_humidity;BME280_pressure;Samples;Min_cycle;Max_cycle;Signal;HPM_P1;HPM_P2
2023/03/11 00:00:21;;;;;;;3.03;1.83;;;2.20;86.20;;;;;;9172964;19;20014;-61
2023/03/11 00:03:27;;;;;;;2.60;1.50;;;2.20;85.60;;;;;;9169200;19;20025;-61
2023/03/11 00:06:36;;;;;;;3.97;1.65;;;2.20;85.60;;;;;;9169429;19;20018;-60
2023/03/11 00:09:42;;;;;;;4.85;1.67;;;2.20;85.60;;;;;;9169309;19;20011;-60
2023/03/11 00:12:46;;;;;;;6.68;1.88;;;2.20;85.60;;;;;;9170480;19;20014;-60
2023/03/11 00:15:55;;;;;;;3.00;1.73;;;2.20;85.60;;;;;;9178296;19;20018;-61
2023/03/11 00:18:59;;;;;;;9.25;1.60;;;2.20;85.60;;;;;;9174696;19;20011;-59
2023/03/11 00:22:07;;;;;;;6.82;1.70;;;2.20;85.60;;;;;;9173426;19;20019;-60
2023/03/11 00:25:11;;;;;;;2.95;1.42;;;2.20;85.60;;;;;;9172133;19;20035;-60
2023/03/11 00:28:17;;;;;;;3.42;1.58;;;2.20;85.60;;;;;;9177469;19;20347;-60
2023/03/11 00:31:21;;;;;;;6.07;1.83;;;2.20;85.60;;;;;;9177602;19;20014;-60
2023/03/11 00:34:28;;;;;;;3.65;1.70;;;2.20;85.60;;;;;;9173693;19;20011;-60
2023/03/11 00:37:34;;;;;;;5.38;1.65;;;2.20;86.20;;;;;;9176953;19;20077;-60
2023/03/11 00:40:40;;;;;;;2.85;1.27;;;2.20;85.60;;;;;;9176372;19;20019;-60
2023/03/11 00:43:44;;;;;;;7.25;1.40;;;2.20;85.50;;;;;;9176574;19;20015;-60
2023/03/11 00:46:50;;;;;;;6.75;1.63;;;2.20;85.50;;;;;;9176796;19;20024;-60
2023/03/11 00:49:54;;;;;;;2.30;1.20;;;2.20;85.50;;;;;;9174982;19;20556;-60
2023/03/11 00:53:03;;;;;;;4.47;1.77;;;2.20;85.60;;;;;;9174511;19;20010;-60
2023/03/11 00:56:08;;;;;;;6.45;1.38;;;2.20;85.50;;;;;;9175145;19;20022;-60
2023/03/11 00:59:16;;;;;;;3.22;1.35;;;2.20;85.60;;;;;;9172121;19;20014;-60
2023/03/11 01:02:20;;;;;;;4.18;1.40;;;2.10;85.50;;;;;;9171794;19;20085;-61
2023/03/11 01:05:29;;;;;;;2.67;1.17;;;2.20;85.60;;;;;;9171552;19;20010;-60
2023/03/11 01:08:36;;;;;;;3.08;1.55;;;2.20;85.60;;;;;;9174569;19;20018;-61
2023/03/11 01:11:42;;;;;;;2.42;1.02;;;2.20;85.60;;;;;;9175123;19;20014;-60
2023/03/11 01:14:45;;;;;;;4.28;2.30;;;2.10;85.50;;;;;;9172621;19;20480;-61
2023/03/11 01:17:51;;;;;;;5.15;1.90;;;2.10;85.50;;;;;;9175478;19;20022;-60
2023/03/11 01:20:56;;;;;;;5.65;1.52;;;2.10;85.60;;;;;;9179960;19;20475;-60
2023/03/11 01:24:05;;;;;;;8.13;2.38;;;2.10;85.60;;;;;;9181457;19;20014;-60
2023/03/11 01:27:09;;;;;;;5.80;1.63;;;2.10;85.60;;;;;;9181831;19;20098;-60
2023/03/11 01:30:18;;;;;;;10.65;1.75;;;2.10;85.60;;;;;;9180656;19;20368;-60
2023/03/11 01:33:22;;;;;;;9.50;1.50;;;2.10;85.60;;;;;;9183171;19;20018;-60
2023/03/11 01:36:33;;;;;;;4.30;1.65;;;2.10;85.60;;;;;;9180865;19;20022;-60
2023/03/11 01:39:39;;;;;;;7.75;1.52;;;2.10;85.60;;;;;;9182106;19;20058;-61
2023/03/11 01:42:45;;;;;;;2.63;1.15;;;2.10;85.60;;;;;;9179866;19;20021;-60
2023/03/11 01:46:09;;;;;;;11.48;2.15;;;2.20;85.70;;;;;;9176443;19;20027;-60
2023/03/11 01:49:16;;;;;;;5.72;1.15;;;2.10;85.60;;;;;;9180030;19;20018;-61
2023/03/11 01:52:20;;;;;;;7.93;1.73;;;2.10;85.60;;;;;;9180509;19;20343;-61
2023/03/11 01:55:33;;;;;;;8.60;2.05;;;2.10;85.60;;;;;;9180913;19;20455;-60
2023/03/11 01:58:40;;;;;;;10.70;1.70;;;2.10;85.60;;;;;;9180027;19;20478;-61
2023/03/11 02:01:53;;;;;;;5.82;1.42;;;2.10;85.60;;;;;;9181679;19;20014;-60
2023/03/11 02:05:00;;;;;;;6.75;1.50;;;2.10;85.60;;;;;;9179431;19;20021;-60
2023/03/11 02:08:07;;;;;;;6.68;1.60;;;2.10;85.50;;;;;;9179929;19;20015;-61
2023/03/11 02:11:17;;;;;;;2.75;1.35;;;2.10;85.60;;;;;;9180480;19;20024;-60
2023/03/11 02:14:25;;;;;;;4.75;1.50;;;2.10;85.60;;;;;;9174061;19;20011;-60
2023/03/11 02:17:31;;;;;;;9.30;1.55;;;2.10;85.60;;;;;;9181056;19;20033;-60
2023/03/11 02:20:46;;;;;;;5.38;1.55;;;2.10;85.60;;;;;;9178343;19;20876;-61
2023/03/11 02:23:57;;;;;;;8.23;1.70;;;2.10;85.60;;;;;;9177595;19;20372;-60
2023/03/11 02:27:07;;;;;;;5.50;1.40;;;2.10;85.60;;;;;;9180872;19;20391;-60
2023/03/11 02:30:13;;;;;;;11.18;1.17;;;2.10;85.60;;;;;;9179870;19;20019;-60
2023/03/11 02:33:23;;;;;;;3.72;1.35;;;2.10;85.70;;;;;;9178701;19;20015;-60
2023/03/11 02:36:45;;;;;;;11.80;1.58;;;2.00;85.60;;;;;;9179012;19;20078;-59
2023/03/11 02:39:54;;;;;;;8.02;1.88;;;2.10;85.60;;;;;;9179121;19;20018;-60
2023/03/11 02:43:03;;;;;;;5.07;1.40;;;2.10;85.60;;;;;;9177083;19;20641;-60
2023/03/11 02:46:11;;;;;;;4.75;1.25;;;2.00;85.50;;;;;;9177128;19;20019;-60
2023/03/11 02:49:17;;;;;;;6.40;1.73;;;2.00;85.50;;;;;;9178352;19;20018;-61
2023/03/11 02:52:24;;;;;;;13.15;1.50;;;2.00;85.50;;;;;;9177246;19;20014;-60
2023/03/11 02:55:28;;;;;;;9.85;2.38;;;2.00;85.50;;;;;;9175887;19;20038;-60
2023/03/11 02:58:36;;;;;;;8.77;1.60;;;2.00;85.50;;;;;;9179856;19;20383;-60
2023/03/11 03:01:40;;;;;;;5.03;1.20;;;2.00;85.40;;;;;;9176493;19;20022;-61
2023/03/11 03:04:46;;;;;;;5.78;1.45;;;2.00;85.50;;;;;;9176738;19;20011;-60
2023/03/11 03:07:51;;;;;;;4.78;1.60;;;2.00;85.40;;;;;;9176750;19;20070;-62
2023/03/11 03:10:58;;;;;;;9.90;1.25;;;2.00;85.50;;;;;;9179509;19;20014;-60
2023/03/11 03:14:04;;;;;;;12.20;1.23;;;2.00;85.50;;;;;;9173458;19;20021;-60
2023/03/11 03:17:10;;;;;;;12.85;2.60;;;1.90;85.40;;;;;;9177227;19;20010;-60
2023/03/11 03:20:16;;;;;;;8.18;1.58;;;1.90;85.40;;;;;;9179249;19;20033;-59
2023/03/11 03:23:27;;;;;;;7.97;1.77;;;2.00;85.60;;;;;;9177012;19;20011;-59
2023/03/11 03:26:31;;;;;;;7.90;1.52;;;1.90;85.50;;;;;;9174911;19;20089;-61
2023/03/11 03:29:39;;;;;;;3.00;1.38;;;2.00;85.50;;;;;;9177514;19;20018;-59
2023/03/11 03:32:43;;;;;;;4.88;1.58;;;1.90;85.40;;;;;;9176248;19;20070;-60
2023/03/11 03:35:53;;;;;;;5.25;1.13;;;2.00;85.50;;;;;;9173803;19;20013;-59
2023/03/11 03:39:01;;;;;;;6.78;1.38;;;1.90;85.40;;;;;;9177234;19;20055;-60
2023/03/11 03:42:11;;;;;;;8.18;1.52;;;2.00;85.50;;;;;;9175360;19;20010;-59
2023/03/11 03:45:19;;;;;;;5.72;1.35;;;2.00;85.50;;;;;;9175172;19;20018;-60
2023/03/11 03:48:29;;;;;;;6.45;1.27;;;2.00;85.40;;;;;;9175984;19;20017;-61
2023/03/11 03:51:34;;;;;;;8.43;1.55;;;2.00;85.40;;;;;;9172850;19;20359;-60
2023/03/11 03:54:48;;;;;;;5.03;1.63;;;2.00;85.50;;;;;;9176649;19;20014;-59
2023/03/11 03:57:52;;;;;;;5.43;1.50;;;2.00;85.50;;;;;;9178278;19;20019;-61
2023/03/11 04:01:06;;;;;;;8.07;1.17;;;2.00;85.40;;;;;;9174812;19;20026;-61
2023/03/11 04:04:10;;;;;;;3.53;1.50;;;2.00;85.40;;;;;;9176111;19;20126;-60
2023/03/11 04:07:17;;;;;;;5.95;1.50;;;2.00;85.40;;;;;;9175536;19;20017;-60
2023/03/11 04:10:21;;;;;;;3.65;1.30;;;2.00;85.40;;;;;;9175190;19;20359;-61
2023/03/11 04:13:28;;;;;;;4.78;1.50;;;1.90;85.30;;;;;;9170583;19;20101;-61
2023/03/11 04:16:34;;;;;;;9.25;1.65;;;2.00;85.40;;;;;;9176847;19;20026;-61
2023/03/11 04:19:44;;;;;;;8.38;1.25;;;1.90;85.30;;;;;;9174626;19;20014;-60
2023/03/11 04:22:49;;;;;;;10.18;1.33;;;1.90;85.30;;;;;;9175629;19;20010;-61
2023/03/11 04:25:56;;;;;;;5.50;0.95;;;1.90;85.30;;;;;;9172817;19;20029;-61
2023/03/11 04:29:00;;;;;;;2.22;1.25;;;1.90;85.30;;;;;;9174609;19;20011;-60
2023/03/11 04:32:11;;;;;;;6.82;1.25;;;1.90;85.20;;;;;;9175139;19;20014;-60
2023/03/11 04:35:16;;;;;;;7.78;1.60;;;1.90;85.20;;;;;;9175293;19;20014;-58
2023/03/11 04:38:24;;;;;;;2.83;1.10;;;1.90;85.20;;;;;;9172749;19;20495;-60
2023/03/11 04:41:28;;;;;;;3.63;0.90;;;1.90;85.20;;;;;;9171685;19;20022;-60
2023/03/11 04:44:36;;;;;;;6.65;1.52;;;1.90;85.20;;;;;;9173760;19;20018;-60
2023/03/11 04:47:43;;;;;;;3.78;1.15;;;1.90;85.20;;;;;;9175349;19;20019;-60
2023/03/11 04:50:49;;;;;;;4.47;1.08;;;1.80;85.10;;;;;;9185010;19;20356;-62
2023/03/11 04:53:53;;;;;;;10.63;1.40;;;1.80;85.70;;;;;;9182225;19;20483;-63
2023/03/11 04:56:59;;;;;;;3.70;1.40;;;1.80;85.10;;;;;;9182278;19;20010;-61
2023/03/11 05:00:04;;;;;;;4.63;1.33;;;1.80;85.10;;;;;;9181756;19;20017;-61
2023/03/11 05:03:13;;;;;;;5.20;1.98;;;1.80;85.10;;;;;;9181015;19;20345;-60
2023/03/11 05:06:17;;;;;;;3.47;1.10;;;1.80;85.10;;;;;;9179718;19;20038;-61
2023/03/11 05:09:23;;;;;;;3.45;1.25;;;1.80;85.10;;;;;;9181973;19;20486;-61
2023/03/11 05:12:27;;;;;;;3.28;1.30;;;1.70;85.10;;;;;;9175764;19;20019;-61
2023/03/11 05:15:34;;;;;;;6.57;2.13;;;1.70;85.00;;;;;;9180388;19;20021;-60
2023/03/11 05:18:41;;;;;;;8.38;1.55;;;1.70;85.00;;;;;;9181662;19;20018;-60
2023/03/11 05:21:49;;;;;;;4.10;1.20;;;1.70;85.00;;;;;;9180964;19;20018;-61
2023/03/11 05:24:54;;;;;;;4.82;1.65;;;1.70;85.00;;;;;;9180379;19;20022;-61
2023/03/11 05:28:01;;;;;;;5.60;1.40;;;1.70;85.00;;;;;;9181918;19;20026;-60
2023/03/11 05:31:09;;;;;;;2.65;1.05;;;1.60;85.00;;;;;;9180739;19;20025;-61
2023/03/11 05:34:19;;;;;;;5.55;1.30;;;1.60;85.00;;;;;;9181550;19;20013;-61
2023/03/11 05:37:23;;;;;;;11.05;1.40;;;1.60;84.90;;;;;;9182993;19;20029;-60
2023/03/11 05:40:30;;;;;;;6.85;1.13;;;1.60;85.00;;;;;;9180931;19;20014;-60
2023/03/11 05:43:35;;;;;;;5.18;1.00;;;1.50;84.90;;;;;;9177888;19;20022;-60
2023/03/11 05:46:41;;;;;;;3.22;1.30;;;1.60;84.90;;;;;;9178713;19;20019;-60
2023/03/11 05:49:50;;;;;;;6.10;1.42;;;1.60;85.00;;;;;;9180886;19;20475;-60
2023/03/11 05:52:57;;;;;;;2.00;0.90;;;1.50;84.90;;;;;;9179774;19;20010;-61
2023/03/11 05:56:03;;;;;;;6.32;1.30;;;1.50;84.90;;;;;;9179872;19;20014;-62
2023/03/11 05:59:10;;;;;;;10.23;1.52;;;1.50;85.00;;;;;;9180596;19;20030;-60
2023/03/11 06:02:15;;;;;;;1.73;1.15;;;1.50;84.90;;;;;;9179253;19;20018;-60
2023/03/11 06:05:24;;;;;;;8.73;2.17;;;1.50;84.90;;;;;;9179077;19;20014;-61
2023/03/11 06:08:33;;;;;;;3.97;1.40;;;1.50;84.90;;;;;;9174037;19;20018;-61
2023/03/11 06:11:39;;;;;;;4.80;1.48;;;1.50;85.00;;;;;;9181489;19;20475;-61
2023/03/11 06:14:43;;;;;;;13.93;4.05;;;1.50;85.00;;;;;;9172931;19;20014;-61
2023/03/11 06:17:49;;;;;;;3.65;2.05;;;1.50;84.90;;;;;;9179315;19;20018;-61
2023/03/11 06:21:00;;;;;;;4.82;1.35;;;1.50;85.00;;;;;;9174663;19;20602;-61
2023/03/11 06:24:06;;;;;;;8.38;1.83;;;1.50;84.90;;;;;;9171898;19;20010;-61
2023/03/11 06:27:11;;;;;;;6.43;2.00;;;1.40;84.80;;;;;;9168604;19;20558;-61
2023/03/11 06:30:19;;;;;;;4.70;1.85;;;1.40;84.90;;;;;;9173215;19;20018;-61
2023/03/11 06:33:32;;;;;;;6.03;1.20;;;1.40;84.80;;;;;;9168306;19;20479;-61
2023/03/11 06:36:40;;;;;;;6.85;1.67;;;1.40;84.90;;;;;;9171852;19;20106;-61
2023/03/11 06:39:44;;;;;;;2.35;1.10;;;1.40;84.80;;;;;;9171698;19;20018;-61
2023/03/11 06:42:55;;;;;;;6.72;3.03;;;1.40;84.80;;;;;;9175394;19;20364;-61
2023/03/11 06:46:01;;;;;;;3.17;1.98;;;1.40;84.90;;;;;;9176593;19;20018;-61
2023/03/11 06:49:08;;;;;;;3.47;1.20;;;1.40;84.80;;;;;;9178793;19;20019;-61
2023/03/11 06:52:16;;;;;;;8.70;1.77;;;1.40;84.80;;;;;;9178572;19;20014;-61
2023/03/11 06:55:22;;;;;;;1.67;1.30;;;1.40;84.80;;;;;;9179084;19;20499;-61
2023/03/11 06:58:27;;;;;;;5.85;1.52;;;1.40;84.90;;;;;;9179319;19;20033;-61
2023/03/11 07:01:33;;;;;;;5.85;1.50;;;1.40;84.80;;;;;;9176621;19;20348;-61
2023/03/11 07:04:40;;;;;;;11.95;1.42;;;1.40;84.80;;;;;;9177872;19;20018;-62
2023/03/11 07:07:48;;;;;;;11.90;1.45;;;1.40;84.80;;;;;;9176540;19;20021;-62
2023/03/11 07:11:01;;;;;;;10.05;3.63;;;1.40;84.90;;;;;;9176178;19;20469;-61
2023/03/11 07:14:08;;;;;;;4.45;2.47;;;1.40;84.90;;;;;;9172023;19;20479;-62
2023/03/11 07:17:15;;;;;;;3.00;1.40;;;1.40;84.90;;;;;;9175298;19;20535;-61
2023/03/11 07:20:26;;;;;;;2.83;1.63;;;1.50;85.00;;;;;;9176763;19;20010;-61
2023/03/11 07:23:32;;;;;;;6.50;1.67;;;1.50;85.00;;;;;;9178819;19;20018;-61
2023/03/11 07:26:38;;;;;;;6.53;2.00;;;1.50;85.00;;;;;;9171760;19;20479;-62
2023/03/11 07:29:42;;;;;;;8.10;1.75;;;1.50;85.10;;;;;;9177118;19;20035;-61
2023/03/11 07:32:48;;;;;;;10.30;2.20;;;1.60;85.10;;;;;;9175947;19;20017;-62
2023/03/11 07:35:52;;;;;;;3.65;1.90;;;1.60;85.20;;;;;;9172712;19;20031;-62
2023/03/11 07:39:03;;;;;;;12.80;2.00;;;1.60;85.20;;;;;;9175436;19;20018;-61
2023/03/11 07:42:08;;;;;;;3.63;2.20;;;1.70;85.30;;;;;;9174815;19;20018;-61
2023/03/11 07:45:15;;;;;;;2.70;1.60;;;1.70;85.30;;;;;;9174864;19;20096;-62
2023/03/11 07:48:19;;;;;;;4.70;2.10;;;1.80;85.50;;;;;;9178008;19;20010;-61
2023/03/11 07:51:27;;;;;;;8.70;3.03;;;1.90;85.60;;;;;;9176456;19;20011;-61
2023/03/11 07:54:33;;;;;;;9.40;2.55;;;2.00;85.70;;;;;;9176722;19;20027;-61
2023/03/11 07:57:39;;;;;;;9.50;1.92;;;2.00;85.70;;;;;;9175714;19;20018;-61
2023/03/11 08:00:43;;;;;;;7.22;2.20;;;2.20;85.80;;;;;;9173159;19;20021;-66
2023/03/11 08:03:56;;;;;;;7.10;2.20;;;2.30;85.90;;;;;;9177899;19;20011;-61
2023/03/11 08:07:00;;;;;;;12.02;2.30;;;2.40;86.00;;;;;;9174934;19;20480;-61
2023/03/11 08:10:09;;;;;;;11.38;2.40;;;2.50;86.00;;;;;;9176620;19;20360;-62
2023/03/11 08:13:13;;;;;;;10.60;2.53;;;2.70;86.20;;;;;;9167812;19;20018;-62
2023/03/11 08:16:21;;;;;;;7.03;2.50;;;2.80;86.20;;;;;;9176445;19;20014;-62
2023/03/11 08:19:26;;;;;;;11.05;2.75;;;3.00;86.30;;;;;;9177629;19;20036;-61
2023/03/11 08:22:32;;;;;;;7.13;2.53;;;3.10;86.30;;;;;;9174025;19;20011;-62
2023/03/11 08:25:39;;;;;;;11.55;2.90;;;3.30;87.00;;;;;;9173822;19;20014;-62
2023/03/11 08:28:46;;;;;;;6.03;2.50;;;3.40;86.40;;;;;;9176837;19;20010;-62
2023/03/11 08:31:50;;;;;;;6.43;2.67;;;3.60;86.50;;;;;;9173208;19;20014;-62
2023/03/11 08:34:56;;;;;;;10.70;2.95;;;3.70;86.50;;;;;;9174038;19;20029;-63
2023/03/11 08:38:01;;;;;;;9.77;3.15;;;4.00;86.70;;;;;;9176269;19;20082;-63
2023/03/11 08:41:09;;;;;;;9.68;4.00;;;4.20;86.70;;;;;;9175426;19;20014;-63
2023/03/11 08:44:13;;;;;;;4.97;2.08;;;4.30;86.70;;;;;;9173309;19;20010;-63
2023/03/11 08:47:19;;;;;;;7.95;1.80;;;4.40;86.70;;;;;;9169753;19;20010;-62
2023/03/11 08:50:23;;;;;;;5.95;1.60;;;4.60;86.70;;;;;;9172737;19;20030;-63
2023/03/11 08:53:29;;;;;;;6.18;1.55;;;4.70;86.60;;;;;;9176051;19;20011;-62
2023/03/11 08:56:35;;;;;;;7.07;1.90;;;4.90;86.50;;;;;;9175092;19;20011;-62
2023/03/11 08:59:41;;;;;;;6.50;1.40;;;5.10;86.60;;;;;;9174724;19;20017;-62
2023/03/11 09:02:46;;;;;;;8.38;1.98;;;5.20;86.60;;;;;;9172573;19;20010;-63
2023/03/11 09:05:58;;;;;;;7.25;1.50;;;5.40;86.50;;;;;;9173149;19;20014;-63
2023/03/11 09:09:02;;;;;;;14.27;1.15;;;5.60;86.40;;;;;;9171652;19;20011;-62
2023/03/11 09:12:12;;;;;;;10.15;1.65;;;5.70;86.30;;;;;;9174099;19;20479;-62
2023/03/11 09:15:17;;;;;;;19.02;5.70;;;5.90;86.30;;;;;;9168624;19;20021;-62
2023/03/11 09:18:23;;;;;;;13.02;3.15;;;6.00;86.10;;;;;;9173937;19;20014;-62
2023/03/11 09:21:27;;;;;;;9.23;1.80;;;6.20;86.10;;;;;;9173383;19;20355;-63
2023/03/11 09:24:35;;;;;;;6.47;1.67;;;6.30;86.00;;;;;;9172576;19;20011;-62
2023/03/11 09:27:41;;;;;;;8.10;1.73;;;6.50;86.00;;;;;;9170062;19;20010;-63
2023/03/11 09:30:47;;;;;;;3.50;1.38;;;6.60;85.90;;;;;;9172199;19;20015;-63
2023/03/11 09:33:54;;;;;;;3.33;1.20;;;6.80;85.80;;;;;;9169919;19;20349;-63
2023/03/11 09:37:01;;;;;;;4.97;1.40;;;6.90;85.60;;;;;;9181051;19;20018;-63
2023/03/11 09:40:06;;;;;;;4.88;0.85;;;7.10;85.60;;;;;;9183017;19;20010;-63
2023/03/11 09:43:21;;;;;;;3.35;0.98;;;7.20;85.50;;;;;;9180916;19;20625;-63
2023/03/11 09:46:51;;;;;;;5.00;0.90;;;7.40;85.40;;;;;;9180281;19;20018;-62
2023/03/11 09:50:23;;;;;;;10.52;1.55;;;7.60;85.40;;;;;;9179626;19;20023;-63
2023/03/11 09:53:34;;;;;;;4.90;1.10;;;7.70;85.30;;;;;;9181859;19;20022;-63
2023/03/11 09:56:43;;;;;;;7.35;2.00;;;7.90;85.20;;;;;;9180288;19;20026;-63
2023/03/11 09:59:50;;;;;;;11.52;0.93;;;8.00;85.00;;;;;;9183098;19;20019;-63
2023/03/11 10:02:57;;;;;;;3.08;1.20;;;8.20;84.80;;;;;;9182800;19;20029;-63
2023/03/11 10:06:16;;;;;;;4.22;1.00;;;8.30;84.60;;;;;;9178874;19;20023;-63
2023/03/11 10:09:38;;;;;;;7.43;1.88;;;8.40;84.40;;;;;;9175954;19;20014;-62
2023/03/11 10:12:53;;;;;;;5.00;1.40;;;8.50;84.10;;;;;;9175793;19;20014;-61
2023/03/11 10:16:09;;;;;;;11.32;1.38;;;8.60;84.10;;;;;;9181162;19;20946;-62
2023/03/11 10:19:22;;;;;;;4.75;1.02;;;8.70;84.00;;;;;;9182077;19;20074;-62
2023/03/11 10:22:34;;;;;;;8.18;2.10;;;8.80;83.80;;;;;;9181758;19;20690;-61
2023/03/11 10:25:48;;;;;;;7.60;0.85;;;8.90;83.70;;;;;;9177864;19;20015;-62
2023/03/11 10:29:00;;;;;;;5.28;0.90;;;9.00;83.60;;;;;;9178883;19;21296;-61
2023/03/11 10:32:14;;;;;;;6.82;1.38;;;9.00;83.50;;;;;;9182026;19;20018;-62
2023/03/11 10:35:23;;;;;;;3.25;1.20;;;9.20;83.50;;;;;;9178731;19;20027;-62
2023/03/11 10:38:31;;;;;;;2.78;1.38;;;9.30;83.40;;;;;;9179721;19;20018;-61
2023/03/11 10:41:45;;;;;;;2.53;0.93;;;9.40;83.10;;;;;;9180166;19;20022;-62
2023/03/11 10:44:49;;;;;;;2.42;0.90;;;9.50;82.90;;;;;;9178515;19;20037;-61
2023/03/11 10:47:59;;;;;;;3.90;1.20;;;9.50;82.80;;;;;;9177831;19;20014;-62
2023/03/11 10:51:11;;;;;;;3.40;0.90;;;9.50;82.60;;;;;;9180131;19;20014;-62
2023/03/11 10:54:28;;;;;;;;;;;9.50;82.40;;;;;;9177002;19;20029;-62
2023/03/11 10:57:37;;;;;;;5.88;1.80;;;9.60;82.40;;;;;;9179581;19;19918;-62
2023/03/11 11:00:42;;;;;;;6.68;1.08;;;9.60;82.50;;;;;;9179709;19;20018;-62
2023/03/11 11:03:49;;;;;;;;;;;9.60;82.30;;;;;;9179105;19;20026;-62
2023/03/11 11:06:55;;;;;;;7.43;1.20;;;9.70;82.30;;;;;;9177203;19;19941;-62
2023/03/11 11:10:16;;;;;;;;;;;9.70;82.40;;;;;;9176307;19;20098;-62
2023/03/11 11:13:26;;;;;;;3.13;1.27;;;9.70;82.20;;;;;;9173711;19;19910;-63
2023/03/11 11:16:30;;;;;;;4.80;0.73;;;9.70;82.30;;;;;;9178962;19;20021;-63
2023/03/11 11:19:45;;;;;;;7.25;1.05;;;9.70;82.10;;;;;;9178357;19;20022;-63
2023/03/11 11:22:51;;;;;;;5.63;1.00;;;9.70;81.90;;;;;;9173848;19;20525;-63
2023/03/11 11:26:00;;;;;;;5.00;1.50;;;9.80;81.90;;;;;;9177408;19;20019;-62
2023/03/11 11:29:13;;;;;;;2.38;1.00;;;9.80;81.70;;;;;;9177989;19;20025;-62
2023/03/11 11:32:25;;;;;;;3.85;1.00;;;9.80;81.30;;;;;;9178158;19;20022;-62
2023/03/11 11:35:31;;;;;;;19.35;3.00;;;9.80;81.30;;;;;;9179040;19;20128;-62
2023/03/11 11:38:37;;;;;;;2.95;1.13;;;9.80;81.10;;;;;;9177450;19;20014;-62
2023/03/11 11:41:41;;;;;;;3.20;1.05;;;9.80;81.10;;;;;;9175796;19;20010;-61
2023/03/11 11:44:51;;;;;;;5.72;1.30;;;9.70;81.00;;;;;;9177822;19;20014;-61
2023/03/11 11:47:58;;;;;;;1.77;0.90;;;9.70;80.80;;;;;;9170976;19;20015;-61
2023/03/11 11:51:15;;;;;;;9.00;0.98;;;9.70;80.70;;;;;;9178753;19;20022;-62
2023/03/11 11:54:25;;;;;;;5.68;0.98;;;9.70;80.60;;;;;;9176788;19;20140;-62
2023/03/11 11:57:32;;;;;;;8.25;1.35;;;9.60;80.50;;;;;;9173164;19;20014;-62
2023/03/11 12:00:43;;;;;;;2.65;1.17;;;9.60;80.50;;;;;;9176990;19;20023;-63
2023/03/11 12:04:07;;;;;;;4.07;1.45;;;9.60;80.30;;;;;;9175764;19;20014;-62
2023/03/11 12:07:26;;;;;;;10.98;3.40;;;9.60;80.20;;;;;;9174992;19;20460;-63
2023/03/11 12:10:35;;;;;;;10.90;3.17;;;9.50;80.10;;;;;;9175846;19;20302;-63
2023/03/11 12:13:51;;;;;;;11.85;2.58;;;9.50;80.20;;;;;;9168171;19;20379;-65
2023/03/11 12:17:00;;;;;;;8.63;1.00;;;9.50;80.10;;;;;;9174508;19;20017;-64
2023/03/11 12:20:13;;;;;;;5.68;1.17;;;9.50;80.10;;;;;;9175986;19;20022;-64
2023/03/11 12:23:32;;;;;;;4.00;1.00;;;9.60;80.00;;;;;;9174178;19;20789;-64
2023/03/11 12:26:39;;;;;;;12.68;1.30;;;9.60;79.80;;;;;;9175249;19;20421;-64
2023/03/11 12:29:49;;;;;;;6.78;1.25;;;9.60;79.80;;;;;;9174504;19;20049;-64
2023/03/11 12:32:57;;;;;;;3.13;0.68;;;9.70;79.80;;;;;;9171380;19;20468;-64
2023/03/11 12:36:04;;;;;;;1.30;0.82;;;9.70;79.70;;;;;;9174655;19;20961;-64
2023/03/11 12:39:24;;;;;;;12.95;1.30;;;9.70;79.60;;;;;;9165568;19;20487;-64
2023/03/11 12:42:41;;;;;;;13.20;2.95;;;9.70;79.10;;;;;;9166259;19;20029;-64
2023/03/11 12:45:50;;;;;;;9.38;1.95;;;9.60;79.00;;;;;;9166703;19;20484;-64
2023/03/11 12:49:12;;;;;;;6.35;1.42;;;9.60;79.00;;;;;;9168497;19;20014;-64
2023/03/11 12:52:52;;;;;;;2.55;0.93;;;9.60;78.90;;;;;;9160801;19;20026;-63
2023/03/11 12:56:12;;;;;;;3.47;1.13;;;9.60;78.70;;;;;;9167773;19;20019;-64
2023/03/11 12:59:44;;;;;;;6.30;1.08;;;9.50;78.70;;;;;;9167103;19;20098;-64
2023/03/11 13:03:29;;;;;;;5.43;1.15;;;9.50;78.70;;;;;;9165500;19;20491;-64
2023/03/11 13:06:53;;;;;;;3.10;0.90;;;9.50;78.50;;;;;;9161898;19;20018;-63
2023/03/11 13:10:11;;;;;;;6.05;1.10;;;9.40;78.40;;;;;;9166635;19;20839;-64
2023/03/11 13:13:42;;;;;;;9.80;1.05;;;9.40;78.40;;;;;;9168322;19;20018;-64
2023/03/11 13:16:49;;;;;;;6.65;0.90;;;9.30;77.90;;;;;;9171548;19;20077;-63
2023/03/11 13:19:56;;;;;;;3.58;1.02;;;9.20;78.20;;;;;;9175616;19;20015;-63
2023/03/11 13:23:21;;;;;;;4.68;0.82;;;9.10;78.00;;;;;;9175383;19;20010;-63
2023/03/11 13:26:41;;;;;;;5.68;0.57;;;9.10;77.80;;;;;;9172340;19;20028;-63
2023/03/11 13:29:58;;;;;;;6.22;0.80;;;9.00;77.80;;;;;;9173461;19;20065;-64
2023/03/11 13:33:23;;;;;;;5.82;1.30;;;8.90;77.70;;;;;;9170509;19;20018;-63
2023/03/11 13:36:48;;;;;;;2.67;0.88;;;8.80;77.50;;;;;;9171035;19;20486;-63
2023/03/11 13:40:17;;;;;;;5.45;1.13;;;8.70;77.50;;;;;;9178709;19;20399;-64
2023/03/11 13:43:25;;;;;;;2.40;1.02;;;8.60;77.50;;;;;;9179743;19;20018;-64
2023/03/11 13:46:37;;;;;;;13.05;1.17;;;8.60;77.70;;;;;;9179891;19;20488;-63
2023/03/11 13:49:46;;;;;;;2.42;1.10;;;8.50;77.50;;;;;;9181175;19;20015;-64
2023/03/11 13:52:54;;;;;;;3.70;0.90;;;8.40;77.60;;;;;;9180468;19;20482;-63
2023/03/11 13:56:00;;;;;;;2.20;0.98;;;8.30;77.50;;;;;;9175089;19;20348;-63
2023/03/11 13:59:23;;;;;;;9.77;1.10;;;8.30;77.50;;;;;;9174913;19;20014;-64
2023/03/11 14:02:30;;;;;;;7.93;1.00;;;8.20;76.90;;;;;;9177149;19;20022;-64
2023/03/11 14:05:37;;;;;;;1.48;0.70;;;8.10;77.20;;;;;;9177341;19;20010;-64
2023/03/11 14:08:43;;;;;;;2.15;0.95;;;8.10;77.10;;;;;;9175530;19;20022;-64
2023/03/11 14:11:48;;;;;;;2.63;0.77;;;8.00;77.10;;;;;;9177523;19;20011;-64
2023/03/11 14:14:59;;;;;;;2.17;0.60;;;8.00;77.00;;;;;;9171487;19;20033;-64
2023/03/11 14:18:30;;;;;;;1.15;0.55;;;7.90;76.80;;;;;;9177765;19;20508;-63
2023/03/11 14:21:36;;;;;;;9.70;1.48;;;7.90;76.50;;;;;;9175906;19;20006;-63
2023/03/11 14:24:40;;;;;;;4.40;0.68;;;7.80;76.70;;;;;;9178768;19;20014;-63
2023/03/11 14:27:52;;;;;;;3.08;0.52;;;7.70;76.60;;;;;;9171068;19;20014;-63
2023/03/11 14:31:00;;;;;;;5.25;0.80;;;7.70;76.50;;;;;;9170279;19;20014;-63
2023/03/11 14:34:16;;;;;;;4.07;0.73;;;7.70;76.40;;;;;;9174096;19;20017;-63
2023/03/11 14:37:28;;;;;;;2.55;0.93;;;7.60;76.20;;;;;;9173755;19;20033;-63
2023/03/11 14:40:37;;;;;;;3.20;1.15;;;7.60;76.30;;;;;;9173592;19;20007;-64
2023/03/11 14:43:45;;;;;;;1.80;0.82;;;7.60;76.30;;;;;;9174361;19;20015;-64
2023/03/11 14:46:52;;;;;;;4.28;1.05;;;7.50;76.20;;;;;;9166892;19;20018;-63
2023/03/11 14:50:00;;;;;;;1.05;0.55;;;7.50;76.20;;;;;;9168296;19;20054;-63
2023/03/11 14:53:09;;;;;;;5.35;0.80;;;7.50;76.10;;;;;;9166686;19;20786;-63
2023/03/11 14:56:19;;;;;;;4.43;0.75;;;7.40;76.10;;;;;;9167662;19;20311;-63
2023/03/11 14:59:31;;;;;;;3.90;1.50;;;7.40;76.10;;;;;;9168206;19;20017;-64
2023/03/11 15:02:43;;;;;;;5.97;1.50;;;7.40;75.90;;;;;;9176400;19;20015;-62
2023/03/11 15:05:53;;;;;;;2.58;1.30;;;7.30;75.70;;;;;;9174415;19;20010;-63
2023/03/11 15:09:00;;;;;;;1.88;0.85;;;7.30;75.70;;;;;;9174906;19;20019;-63
2023/03/11 15:12:07;;;;;;;3.05;0.75;;;7.30;75.70;;;;;;9177301;19;20755;-63
2023/03/11 15:15:27;;;;;;;1.90;0.77;;;7.30;75.60;;;;;;9171466;19;20019;-63
2023/03/11 15:18:36;;;;;;;5.68;1.02;;;7.20;75.30;;;;;;9176788;19;20755;-62
2023/03/11 15:21:47;;;;;;;6.93;0.88;;;7.20;75.50;;;;;;9177887;19;20015;-63
2023/03/11 15:24:54;;;;;;;3.08;1.02;;;7.20;75.30;;;;;;9169912;19;20030;-63
2023/03/11 15:27:58;;;;;;;5.25;0.80;;;7.20;75.40;;;;;;9171715;19;20094;-63
2023/03/11 15:31:29;;;;;;;4.50;0.98;;;7.20;75.30;;;;;;9175840;19;20471;-62
2023/03/11 15:34:34;;;;;;;6.18;1.20;;;7.10;75.00;;;;;;9174659;19;20164;-63
2023/03/11 15:37:43;;;;;;;5.25;1.00;;;7.10;75.20;;;;;;9173163;19;20656;-63
2023/03/11 15:40:54;;;;;;;5.38;1.15;;;7.10;75.00;;;;;;9176282;19;20044;-63
2023/03/11 15:44:02;;;;;;;2.47;1.10;;;7.10;74.90;;;;;;9170877;19;20715;-63
2023/03/11 15:47:07;;;;;;;2.33;0.88;;;7.00;74.90;;;;;;9169951;19;20656;-62
2023/03/11 15:50:22;;;;;;;7.88;2.33;;;7.00;74.90;;;;;;9174678;19;20368;-62
2023/03/11 15:53:32;;;;;;;6.68;1.30;;;7.00;74.80;;;;;;9174067;19;20014;-62
2023/03/11 15:56:38;;;;;;;4.90;0.82;;;7.00;74.80;;;;;;9167194;19;20010;-62
2023/03/11 15:59:42;;;;;;;2.25;0.77;;;6.90;74.70;;;;;;9173230;19;20478;-63
2023/03/11 16:02:48;;;;;;;4.97;1.00;;;6.90;74.70;;;;;;9167683;19;20021;-63
2023/03/11 16:05:52;;;;;;;7.82;0.90;;;6.80;74.50;;;;;;9176933;19;20021;-63
2023/03/11 16:09:00;;;;;;;4.68;1.08;;;6.90;74.60;;;;;;9169936;19;20013;-63
2023/03/11 16:12:14;;;;;;;0.95;0.65;;;6.80;74.40;;;;;;9170630;19;20091;-63
2023/03/11 16:15:27;;;;;;;2.17;0.98;;;6.70;74.20;;;;;;9166926;19;20016;-63
2023/03/11 16:18:31;;;;;;;4.65;1.40;;;6.70;74.60;;;;;;9169663;19;20093;-63
2023/03/11 16:21:42;;;;;;;3.28;1.00;;;6.70;74.40;;;;;;9171403;19;20018;-63
2023/03/11 16:24:50;;;;;;;1.77;1.00;;;6.70;74.30;;;;;;9171786;19;20038;-63
2023/03/11 16:27:58;;;;;;;3.40;0.90;;;6.60;74.10;;;;;;9168377;19;20033;-63
2023/03/11 16:31:02;;;;;;;4.95;1.17;;;6.60;74.20;;;;;;9166756;19;20022;-63
2023/03/11 16:34:08;;;;;;;4.38;1.55;;;6.60;74.20;;;;;;9175757;19;20014;-63
2023/03/11 16:37:19;;;;;;;3.10;1.23;;;6.50;74.10;;;;;;9174243;19;20022;-63